createdAt,value
2022-12-24T00:01:04.400Z,10.03
2022-12-24T00:03:31.044Z,12.13
2022-12-24T00:05:57.787Z,13.10
2022-12-24T00:08:24.272Z,9.90
2022-12-24T00:10:53.582Z,10.50
2022-12-24T00:13:21.163Z,13.90
2022-12-24T00:15:48.637Z,11.83
2022-12-24T00:18:15.421Z,17.47
2022-12-24T00:20:46.720Z,10.87
2022-12-24T00:23:13.583Z,12.40
2022-12-24T00:25:40.073Z,12.53
2022-12-24T00:28:06.566Z,11.87
2022-12-24T00:30:33.062Z,11.97
2022-12-24T00:32:59.542Z,12.60
2022-12-24T00:35:26.008Z,15.33
2022-12-24T00:37:52.463Z,14.60
2022-12-24T00:40:18.933Z,14.57
2022-12-24T00:42:45.378Z,14.50
2022-12-24T00:45:12.432Z,15.13
2022-12-24T00:47:39.171Z,15.00
2022-12-24T00:50:07.191Z,15.10
2022-12-24T00:52:34.458Z,10.47
2022-12-24T00:55:01.010Z,12.17
2022-12-24T00:57:27.545Z,10.10
2022-12-24T00:59:54.038Z,11.77
2022-12-24T01:02:20.674Z,11.17
2022-12-24T01:05:05.616Z,10.07
2022-12-24T01:07:32.110Z,16.37
2022-12-24T01:09:58.572Z,10.40
2022-12-24T01:12:25.602Z,12.63
2022-12-24T01:14:52.143Z,10.97
2022-12-24T01:17:18.637Z,11.80
2022-12-24T01:19:45.237Z,9.77
2022-12-24T01:22:11.986Z,4.20
2022-12-24T01:24:41.408Z,6.67
2022-12-24T01:27:08.064Z,8.93
2022-12-24T01:29:34.695Z,9.17
2022-12-24T01:32:01.181Z,9.53
2022-12-24T01:34:27.652Z,8.10
2022-12-24T01:36:54.129Z,10.30
2022-12-24T01:39:20.619Z,7.50
2022-12-24T01:42:05.308Z,7.53
2022-12-24T01:44:37.040Z,5.77
2022-12-24T01:47:46.927Z,7.33
2022-12-24T01:50:17.318Z,12.13
2022-12-24T01:52:44.112Z,7.37
2022-12-24T01:55:16.876Z,6.07
2022-12-24T01:57:51.732Z,6.90
2022-12-24T02:00:18.717Z,6.00
2022-12-24T02:02:50.038Z,4.83
2022-12-24T02:06:00.132Z,5.37
2022-12-24T02:08:39.150Z,9.97
2022-12-24T02:11:22.365Z,6.90
2022-12-24T02:13:58.612Z,6.40
2022-12-24T02:17:30.938Z,5.30
2022-12-24T02:26:05.493Z,7.20
2022-12-24T02:29:57.902Z,7.37
2022-12-24T02:33:08.411Z,4.93
2022-12-24T02:35:58.866Z,4.60
2022-12-24T02:38:39.274Z,4.10
2022-12-24T02:42:04.918Z,5.67
2022-12-24T02:44:44.474Z,6.87
2022-12-24T02:47:13.952Z,6.23
2022-12-24T02:49:46.566Z,4.57
2022-12-24T02:52:38.015Z,4.13
2022-12-24T02:58:24.744Z,5.07
2022-12-24T03:04:39.595Z,5.57
2022-12-24T03:07:36.328Z,6.57
2022-12-24T03:10:41.512Z,6.97
2022-12-24T03:13:15.751Z,6.37
2022-12-24T03:15:44.860Z,7.43
2022-12-24T03:18:16.653Z,6.07
2022-12-24T03:21:06.850Z,5.30
2022-12-24T03:23:34.703Z,4.33
2022-12-24T03:26:07.784Z,4.97
2022-12-24T03:28:37.525Z,5.03
2022-12-24T03:31:06.666Z,5.73
2022-12-24T03:33:34.116Z,5.67
2022-12-24T03:36:01.109Z,8.30
2022-12-24T03:38:27.580Z,6.63
2022-12-24T03:40:54.062Z,6.97
2022-12-24T03:43:20.534Z,3.53
2022-12-24T03:45:47.422Z,5.37
2022-12-24T03:48:13.945Z,6.83
2022-12-24T03:50:40.451Z,4.00
2022-12-24T03:53:06.958Z,4.47
2022-12-24T03:55:33.489Z,4.17
2022-12-24T03:58:00.042Z,11.13
2022-12-24T04:00:26.537Z,5.80
2022-12-24T04:02:53.804Z,8.23
2022-12-24T04:05:21.345Z,3.70
2022-12-24T04:07:48.142Z,3.10
2022-12-24T04:10:16.279Z,6.57
2022-12-24T04:12:43.099Z,3.80
2022-12-24T04:15:10.493Z,3.60
2022-12-24T04:17:37.558Z,5.30
2022-12-24T04:20:04.966Z,5.53
2022-12-24T04:22:31.952Z,4.87
2022-12-24T04:24:58.421Z,3.90
2022-12-24T04:27:30.154Z,4.93
2022-12-24T04:29:57.335Z,6.90
2022-12-24T04:32:26.116Z,4.60
2022-12-24T04:34:52.612Z,4.20
2022-12-24T04:37:19.081Z,3.30
2022-12-24T04:39:45.545Z,4.23
2022-12-24T04:42:11.993Z,2.40
2022-12-24T04:44:38.468Z,3.67
2022-12-24T04:47:04.979Z,8.93
2022-12-24T04:49:31.482Z,3.90
2022-12-24T04:51:57.971Z,4.07
2022-12-24T04:54:24.451Z,3.23
2022-12-24T04:56:50.926Z,3.83
2022-12-24T04:59:17.392Z,3.53
2022-12-24T05:01:44.002Z,4.60
2022-12-24T05:04:10.527Z,5.10
2022-12-24T05:06:37.001Z,6.47
2022-12-24T05:09:03.749Z,3.30
2022-12-24T05:11:30.622Z,4.47
2022-12-24T05:13:57.105Z,3.33
2022-12-24T05:16:24.699Z,2.57
2022-12-24T05:18:52.415Z,2.93
2022-12-24T05:21:23.652Z,4.70
2022-12-24T05:24:10.961Z,3.20
2022-12-24T05:26:43.540Z,3.43
2022-12-24T05:29:11.897Z,5.97
2022-12-24T05:31:39.484Z,2.87
2022-12-24T05:34:07.403Z,3.00
2022-12-24T05:36:33.885Z,6.30
2022-12-24T05:39:00.392Z,7.00
2022-12-24T05:41:27.211Z,5.30
2022-12-24T05:43:53.764Z,8.53
2022-12-24T05:46:23.132Z,10.70
2022-12-24T05:48:51.425Z,11.20
2022-12-24T05:51:21.520Z,2.77
2022-12-24T05:53:50.002Z,10.37
2022-12-24T05:56:20.762Z,6.93
2022-12-24T05:58:47.703Z,5.40
2022-12-24T06:01:15.377Z,9.70
2022-12-24T06:03:42.368Z,8.00
2022-12-24T06:06:14.100Z,14.70
2022-12-24T06:08:41.908Z,11.07
2022-12-24T06:11:12.395Z,5.13
2022-12-24T06:13:40.720Z,6.50
2022-12-24T06:16:11.110Z,3.93
2022-12-24T06:18:37.809Z,5.67
2022-12-24T06:21:05.931Z,11.30
2022-12-24T06:23:36.248Z,12.57
2022-12-24T06:26:04.639Z,7.33
2022-12-24T06:28:35.195Z,5.63
2022-12-24T06:31:03.799Z,9.20
2022-12-24T06:33:32.408Z,10.83
2022-12-24T06:35:59.066Z,10.03
2022-12-24T06:38:25.736Z,7.87
2022-12-24T06:40:52.259Z,10.17
2022-12-24T06:43:18.737Z,9.73
2022-12-24T06:45:47.222Z,11.17
2022-12-24T06:48:15.203Z,10.50
2022-12-24T06:50:42.562Z,9.20
2022-12-24T06:53:09.860Z,9.03
2022-12-24T06:55:36.377Z,8.67
2022-12-24T06:58:03.757Z,7.80
2022-12-24T07:00:30.247Z,6.07
2022-12-24T07:02:56.784Z,7.67
2022-12-24T07:05:23.343Z,6.30
2022-12-24T07:07:49.873Z,7.60
2022-12-24T07:10:18.938Z,5.17
2022-12-24T07:12:45.897Z,3.77
2022-12-24T07:15:14.169Z,4.60
2022-12-24T07:17:40.886Z,6.03
2022-12-24T07:20:12.880Z,7.63
2022-12-24T07:22:39.332Z,5.27
2022-12-24T07:25:06.675Z,4.47
2022-12-24T07:27:33.157Z,6.33
2022-12-24T07:29:59.671Z,5.93
2022-12-24T07:32:26.179Z,6.27
2022-12-24T07:34:52.652Z,14.17
2022-12-24T07:37:19.133Z,4.87
2022-12-24T07:39:45.735Z,4.20
2022-12-24T07:42:12.203Z,6.83
2022-12-24T07:44:38.685Z,3.20
2022-12-24T07:47:05.208Z,3.13
2022-12-24T07:49:31.885Z,7.33
2022-12-24T07:51:58.382Z,4.73
2022-12-24T07:54:24.939Z,3.67
2022-12-24T07:56:51.445Z,8.10
2022-12-24T07:59:17.947Z,4.67
2022-12-24T08:01:44.988Z,3.33
2022-12-24T08:04:11.834Z,5.80
2022-12-24T08:06:38.657Z,3.83
2022-12-24T08:09:05.632Z,6.23
2022-12-24T08:11:32.116Z,8.10
2022-12-24T08:13:58.565Z,7.70
2022-12-24T08:16:25.095Z,4.40
2022-12-24T08:18:51.779Z,5.13
2022-12-24T08:21:18.264Z,3.87
2022-12-24T08:23:46.935Z,6.17
2022-12-24T08:26:13.600Z,6.67
2022-12-24T08:28:40.057Z,4.23
2022-12-24T08:31:06.963Z,5.50
2022-12-24T08:33:33.493Z,6.50
2022-12-24T08:36:01.621Z,6.57
2022-12-24T08:38:28.261Z,7.50
2022-12-24T08:40:55.903Z,8.20
2022-12-24T08:43:24.690Z,9.50
2022-12-24T08:45:51.193Z,5.90
2022-12-24T08:48:17.766Z,7.17
2022-12-24T08:50:45.043Z,9.63
2022-12-24T08:53:12.189Z,16.33
2022-12-24T08:55:38.964Z,13.90
2022-12-24T08:58:05.548Z,19.37
2022-12-24T09:00:32.036Z,15.47
2022-12-24T09:02:58.710Z,6.17
2022-12-24T09:05:25.445Z,8.47
2022-12-24T09:07:51.933Z,6.80
2022-12-24T09:10:18.878Z,7.83
2022-12-24T09:12:45.329Z,15.10
2022-12-24T09:15:13.376Z,18.70
2022-12-24T09:17:40.313Z,11.50
2022-12-24T09:20:08.614Z,9.60
2022-12-24T09:22:37.696Z,7.37
2022-12-24T09:25:09.784Z,7.90
2022-12-24T09:27:37.036Z,16.00
2022-12-24T09:30:05.854Z,9.67
2022-12-24T09:32:33.443Z,13.60
2022-12-24T09:34:59.995Z,7.97
2022-12-24T09:37:26.763Z,9.97
2022-12-24T09:39:53.214Z,9.93
2022-12-24T09:43:16.243Z,12.93
2022-12-24T09:46:38.734Z,8.30
2022-12-24T09:49:16.448Z,10.27
2022-12-24T09:51:52.954Z,9.93
2022-12-24T09:54:34.273Z,9.30
2022-12-24T09:57:25.347Z,9.30
2022-12-24T09:59:51.826Z,11.37
2022-12-24T10:02:19.885Z,11.63
2022-12-24T10:04:48.168Z,12.97
2022-12-24T10:07:54.236Z,11.20
2022-12-24T10:10:55.079Z,10.87
2022-12-24T10:14:51.560Z,14.77
2022-12-24T10:18:21.475Z,11.40
2022-12-24T10:21:15.866Z,14.10
2022-12-24T10:24:03.904Z,15.53
2022-12-24T10:26:44.998Z,15.53
2022-12-24T10:29:35.794Z,18.10
2022-12-24T10:32:29.619Z,11.53
2022-12-24T10:35:35.736Z,14.97
2022-12-24T10:38:03.732Z,14.20
2022-12-24T10:40:52.365Z,14.37
2022-12-24T10:43:23.439Z,12.43
2022-12-24T10:46:06.348Z,14.43
2022-12-24T10:48:50.812Z,11.70
2022-12-24T10:51:32.967Z,9.40
2022-12-24T10:54:22.534Z,3.20
2022-12-24T10:57:01.845Z,2.23
2022-12-24T10:59:49.712Z,3.30
2022-12-24T11:02:33.316Z,0.50
2022-12-24T11:05:04.117Z,3.23
2022-12-24T11:07:32.877Z,0.83
2022-12-24T11:10:06.917Z,0.57
2022-12-24T11:13:05.853Z,3.70
2022-12-24T11:16:55.685Z,2.03
2022-12-24T11:19:41.591Z,2.23
2022-12-24T11:22:24.722Z,2.17
2022-12-24T11:25:15.549Z,1.13
2022-12-24T11:27:49.015Z,0.80
2022-12-24T11:30:36.805Z,1.63
2022-12-24T11:33:18.122Z,1.23
2022-12-24T11:36:01.004Z,0.60
2022-12-24T11:38:30.903Z,1.30
2022-12-24T11:41:02.736Z,0.57
2022-12-24T11:43:45.258Z,1.10
2022-12-24T11:46:37.236Z,1.70
2022-12-24T11:49:49.266Z,0.47
2022-12-24T11:52:24.466Z,2.05
2022-12-24T11:55:22.479Z,0.40
2022-12-24T12:01:19.876Z,0.30
2022-12-24T12:03:52.732Z,2.30
2022-12-24T12:06:59.627Z,1.40
2022-12-24T12:09:44.164Z,1.47
2022-12-24T12:12:21.731Z,0.50
2022-12-24T12:15:35.750Z,4.73
2022-12-24T12:18:15.721Z,1.98
2022-12-24T12:20:52.485Z,4.30
2022-12-24T12:24:16.164Z,1.73
2022-12-24T12:26:44.670Z,1.80
2022-12-24T12:29:29.914Z,0.83
2022-12-24T12:32:15.554Z,0.47
2022-12-24T12:35:15.002Z,3.20
2022-12-24T12:37:53.885Z,3.10
2022-12-24T12:41:58.151Z,1.77
2022-12-24T12:46:01.734Z,3.90
2022-12-24T12:50:39.754Z,1.52
2022-12-24T12:56:37.065Z,2.10
2022-12-24T13:00:01.445Z,6.93
2022-12-24T13:05:36.901Z,1.10
2022-12-24T13:09:01.211Z,4.07
2022-12-24T13:12:54.953Z,3.20
2022-12-24T13:17:17.345Z,6.90
2022-12-24T13:20:36.136Z,1.40
2022-12-24T13:23:24.922Z,0.50
2022-12-24T13:25:55.976Z,4.90
2022-12-24T13:28:34.871Z,2.03
2022-12-24T13:31:28.249Z,2.43
2022-12-24T13:33:59.022Z,5.37
2022-12-24T13:37:01.276Z,4.43
2022-12-24T13:39:27.728Z,1.73
2022-12-24T13:41:54.205Z,3.83
2022-12-24T13:44:23.127Z,1.37
2022-12-24T13:47:21.520Z,5.10
2022-12-24T13:49:52.973Z,3.17
2022-12-24T13:52:26.641Z,2.60
2022-12-24T13:55:14.824Z,1.27
2022-12-24T13:57:57.856Z,1.70
2022-12-24T14:00:38.354Z,2.13
2022-12-24T14:04:30.711Z,5.40
2022-12-24T14:07:02.131Z,3.43
2022-12-24T14:09:31.784Z,4.17
2022-12-24T14:12:45.107Z,1.80
2022-12-24T14:17:52.083Z,5.53
2022-12-24T14:20:18.605Z,3.50
2022-12-24T14:22:46.436Z,3.20
2022-12-24T14:25:22.803Z,1.17
2022-12-24T14:28:03.492Z,3.57
2022-12-24T14:30:31.309Z,3.27
2022-12-24T14:32:57.871Z,1.70
2022-12-24T14:35:28.798Z,7.07
2022-12-24T14:38:07.148Z,6.37
2022-12-24T14:41:19.413Z,7.03
2022-12-24T14:47:13.486Z,9.00
2022-12-24T14:50:22.055Z,9.30
2022-12-24T14:53:35.710Z,12.53
2022-12-24T14:56:14.245Z,24.30
2022-12-24T14:58:42.691Z,23.23
2022-12-24T15:01:31.393Z,25.60
2022-12-24T15:04:16.791Z,29.07
2022-12-24T15:07:07.007Z,27.83
2022-12-24T15:09:33.722Z,24.77
2022-12-24T15:12:04.074Z,16.17
2022-12-24T15:14:42.216Z,20.40
2022-12-24T15:17:12.709Z,26.30
2022-12-24T15:19:44.276Z,22.80
2022-12-24T15:22:24.325Z,17.03
2022-12-24T15:24:50.874Z,22.83
2022-12-24T15:27:24.791Z,20.10
2022-12-24T15:29:55.908Z,16.70
2022-12-24T15:32:22.999Z,22.73
2022-12-24T15:34:55.174Z,24.43
2022-12-24T15:37:27.655Z,21.30
2022-12-24T15:40:09.225Z,20.67
2022-12-24T15:42:40.798Z,16.50
2022-12-24T15:45:28.219Z,18.50
2022-12-24T15:48:07.879Z,17.77
2022-12-24T15:50:47.458Z,27.27
2022-12-24T15:53:42.964Z,28.03
2022-12-24T15:56:36.993Z,30.27
2022-12-24T15:59:31.403Z,22.00
2022-12-24T16:02:40.674Z,23.73
2022-12-24T16:05:36.037Z,25.70
2022-12-24T16:08:23.090Z,27.40
2022-12-24T16:11:07.110Z,26.47
2022-12-24T16:13:42.412Z,17.83
2022-12-24T16:16:15.802Z,27.10
2022-12-24T16:19:06.480Z,24.90
2022-12-24T16:21:41.359Z,21.80
2022-12-24T16:24:23.388Z,18.13
2022-12-24T16:26:51.180Z,25.03
2022-12-24T16:29:21.835Z,20.73
2022-12-24T16:31:58.916Z,23.93
2022-12-24T16:34:29.963Z,18.93
2022-12-24T16:36:58.680Z,20.57
2022-12-24T16:39:33.485Z,19.57
2022-12-24T16:42:21.388Z,21.23
2022-12-24T16:44:48.193Z,18.73
2022-12-24T16:47:30.149Z,16.70
2022-12-24T16:50:01.598Z,23.53
2022-12-24T16:52:30.879Z,18.33
2022-12-24T16:54:57.673Z,15.87
2022-12-24T16:57:24.441Z,18.43
2022-12-24T16:59:52.524Z,20.90
2022-12-24T17:02:22.698Z,20.30
2022-12-24T17:04:49.976Z,14.43
2022-12-24T17:07:19.612Z,17.33
2022-12-24T17:09:46.084Z,18.40
2022-12-24T17:12:13.944Z,17.07
2022-12-24T17:14:41.683Z,14.00
2022-12-24T17:17:27.329Z,15.87
2022-12-24T17:19:55.600Z,17.87
2022-12-24T17:22:23.455Z,17.90
2022-12-24T17:24:50.007Z,18.17
2022-12-24T17:27:16.466Z,15.27
2022-12-24T17:29:42.936Z,17.07
2022-12-24T17:32:09.421Z,22.83
2022-12-24T17:34:35.946Z,15.30
2022-12-24T17:37:02.458Z,12.13
2022-12-24T17:39:28.966Z,11.87
2022-12-24T17:41:56.391Z,13.93
2022-12-24T17:44:22.938Z,11.00
2022-12-24T17:46:49.543Z,15.30
2022-12-24T17:49:16.196Z,19.00
2022-12-24T17:51:45.535Z,10.50
2022-12-24T17:54:13.146Z,17.63
2022-12-24T17:56:39.730Z,19.93
2022-12-24T17:59:06.244Z,18.77
2022-12-24T18:01:32.781Z,11.63
2022-12-24T18:04:01.919Z,16.03
2022-12-24T18:06:29.188Z,13.60
2022-12-24T18:08:55.671Z,10.63
2022-12-24T18:11:29.693Z,12.73
2022-12-24T18:13:57.276Z,13.03
2022-12-24T18:16:31.250Z,12.63
2022-12-24T18:18:59.758Z,12.20
2022-12-24T18:21:30.439Z,11.60
2022-12-24T18:23:57.568Z,13.37
2022-12-24T18:26:28.086Z,11.67
2022-12-24T18:28:57.168Z,18.13
2022-12-24T18:31:25.872Z,14.20
2022-12-24T18:33:54.946Z,12.40
2022-12-24T18:36:22.429Z,13.93
2022-12-24T18:38:49.210Z,12.77
2022-12-24T18:41:23.816Z,10.80
2022-12-24T18:43:51.252Z,21.43
2022-12-24T18:46:22.813Z,15.93
2022-12-24T18:48:50.167Z,12.07
2022-12-24T18:51:21.471Z,12.30
2022-12-24T18:53:48.899Z,11.07
2022-12-24T18:56:22.726Z,10.83
2022-12-24T18:58:52.798Z,14.67
2022-12-24T19:01:26.555Z,13.17
2022-12-24T19:03:53.268Z,16.53
2022-12-24T19:06:20.784Z,9.67
2022-12-24T19:08:57.581Z,12.23
2022-12-24T19:11:27.746Z,14.97
2022-12-24T19:13:54.195Z,23.03
2022-12-24T19:16:21.444Z,22.47
2022-12-24T19:18:48.492Z,21.63
2022-12-24T19:21:17.640Z,28.93
2022-12-24T19:23:45.786Z,25.47
2022-12-24T19:26:13.877Z,18.50
2022-12-24T19:28:41.529Z,12.37
2022-12-24T19:31:12.111Z,21.50
2022-12-24T19:33:44.230Z,20.90
2022-12-24T19:36:22.439Z,17.30
2022-12-24T19:38:49.442Z,16.10
2022-12-24T19:41:24.221Z,12.53
2022-12-24T19:43:54.710Z,10.83
2022-12-24T19:46:29.525Z,11.13
2022-12-24T19:48:59.613Z,10.20
2022-12-24T19:51:28.746Z,13.57
2022-12-24T19:53:56.954Z,22.10
2022-12-24T19:56:25.974Z,35.03
2022-12-24T19:58:53.594Z,33.27
2022-12-24T20:01:27.511Z,43.57
2022-12-24T20:03:54.880Z,43.90
2022-12-24T20:06:30.041Z,12.87
2022-12-24T20:09:02.173Z,14.57
2022-12-24T20:11:28.913Z,15.10
2022-12-24T20:14:01.140Z,15.63
2022-12-24T20:16:28.842Z,10.97
2022-12-24T20:19:05.393Z,13.23
2022-12-24T20:21:32.765Z,13.93
2022-12-24T20:23:59.636Z,19.73
2022-12-24T20:26:28.484Z,19.23
2022-12-24T20:28:55.476Z,22.27
2022-12-24T20:31:27.034Z,23.00
2022-12-24T20:33:54.954Z,17.90
2022-12-24T20:36:24.008Z,24.90
2022-12-24T20:38:51.062Z,25.60
2022-12-24T20:41:21.157Z,30.33
2022-12-24T20:43:48.972Z,25.77
2022-12-24T20:46:18.227Z,28.77
2022-12-24T20:48:45.162Z,20.40
2022-12-24T20:51:25.521Z,17.77
2022-12-24T20:53:59.529Z,15.23
2022-12-24T20:56:27.317Z,18.63
2022-12-24T20:58:53.829Z,14.83
2022-12-24T21:01:25.425Z,20.67
2022-12-24T21:03:54.548Z,21.33
2022-12-24T21:06:23.290Z,15.77
2022-12-24T21:08:51.108Z,16.13
2022-12-24T21:11:37.113Z,18.47
2022-12-24T21:14:03.922Z,18.83
2022-12-24T21:16:32.131Z,15.87
2022-12-24T21:18:59.162Z,18.40
2022-12-24T21:21:25.698Z,19.00
2022-12-24T21:23:52.241Z,13.87
2022-12-24T21:26:18.719Z,19.70
2022-12-24T21:28:45.315Z,19.07
2022-12-24T21:31:13.942Z,20.73
2022-12-24T21:33:41.626Z,16.13
2022-12-24T21:36:11.083Z,16.13
2022-12-24T21:38:37.615Z,19.83
2022-12-24T21:41:13.423Z,15.83
2022-12-24T21:43:40.048Z,16.23
2022-12-24T21:46:17.858Z,20.07
2022-12-24T21:49:03.542Z,19.50
2022-12-24T21:51:30.442Z,24.07
2022-12-24T21:54:15.643Z,19.50
2022-12-24T21:57:00.795Z,18.33
2022-12-24T21:59:27.826Z,18.50
2022-12-24T22:01:56.377Z,23.60
2022-12-24T22:04:24.308Z,21.50
2022-12-24T22:07:09.345Z,14.53
2022-12-24T22:09:56.231Z,12.73
2022-12-24T22:12:23.082Z,13.43
2022-12-24T22:14:49.605Z,15.23
2022-12-24T22:17:22.885Z,15.10
2022-12-24T22:19:51.680Z,15.90
2022-12-24T22:22:18.162Z,21.17
2022-12-24T22:24:44.642Z,20.27
2022-12-24T22:27:11.121Z,19.73
2022-12-24T22:29:37.589Z,17.27
2022-12-24T22:32:04.077Z,18.20
2022-12-24T22:34:32.089Z,24.23
2022-12-24T22:36:58.543Z,16.73
2022-12-24T22:39:25.133Z,16.47
2022-12-24T22:41:52.452Z,13.80
2022-12-24T22:44:19.226Z,13.87
2022-12-24T22:46:45.720Z,12.67
2022-12-24T22:49:12.189Z,11.63
2022-12-24T22:51:38.659Z,13.87
2022-12-24T22:54:05.153Z,10.83
2022-12-24T22:56:36.903Z,13.53
2022-12-24T22:59:07.014Z,19.03
2022-12-24T23:01:40.391Z,16.60
2022-12-24T23:04:07.529Z,15.50
2022-12-24T23:06:35.614Z,13.03
2022-12-24T23:09:04.922Z,12.53
2022-12-24T23:11:31.516Z,16.27
2022-12-24T23:14:16.477Z,16.33
2022-12-24T23:16:43.088Z,21.00
2022-12-24T23:19:10.157Z,13.93
2022-12-24T23:21:37.692Z,16.00
2022-12-24T23:24:05.219Z,15.13
2022-12-24T23:26:31.700Z,21.57
2022-12-24T23:28:58.157Z,18.57
2022-12-24T23:31:25.375Z,19.60
2022-12-24T23:33:52.313Z,11.60
2022-12-24T23:36:19.306Z,13.07
2022-12-24T23:38:45.786Z,13.73
2022-12-24T23:41:13.021Z,12.17
2022-12-24T23:43:39.509Z,14.60
2022-12-24T23:46:06.319Z,16.40
2022-12-24T23:48:32.890Z,19.20
2022-12-24T23:51:09.580Z,17.90
2022-12-24T23:53:36.280Z,21.63
2022-12-24T23:56:03.763Z,20.27
2022-12-24T23:58:30.453Z,15.00
